sensor_id;sensor_type;location;lat;lon;timestamp;temperature;humidity
23411;DHT22;11878;51.774;7.220;2023-11-21T00:02:47;7.00;99.90
23411;DHT22;11878;51.774;7.220;2023-11-21T00:05:49;7.00;99.90
23411;DHT22;11878;51.774;7.220;2023-11-21T00:08:50;7.00;99.90
23411;DHT22;11878;51.774;7.220;2023-11-21T00:11:52;7.10;99.90
23411;DHT22;11878;51.774;7.220;2023-11-21T00:14:54;7.10;99.90
23411;DHT22;11878;51.774;7.220;2023-11-21T00:18:00;7.20;99.90
23411;DHT22;11878;51.774;7.220;2023-11-21T00:21:01;7.20;99.90
23411;DHT22;11878;51.774;7.220;2023-11-21T00:24:04;7.20;99.90
23411;DHT22;11878;51.774;7.220;2023-11-21T00:34:17;7.30;99.90
23411;DHT22;11878;51.774;7.220;2023-11-21T00:37:19;7.30;99.90
23411;DHT22;11878;51.774;7.220;2023-11-21T00:40:22;7.20;99.90
23411;DHT22;11878;51.774;7.220;2023-11-21T00:43:24;7.30;99.90
23411;DHT22;11878;51.774;7.220;2023-11-21T00:46:26;7.20;99.90
23411;DHT22;11878;51.774;7.220;2023-11-21T00:49:30;7.30;99.90
23411;DHT22;11878;51.774;7.220;2023-11-21T00:52:34;7.20;99.90
23411;DHT22;11878;51.774;7.220;2023-11-21T00:55:36;7.20;99.90
23411;DHT22;11878;51.774;7.220;2023-11-21T00:58:37;7.30;99.90
23411;DHT22;11878;51.774;7.220;2023-11-21T01:01:39;7.30;99.90
23411;DHT22;11878;51.774;7.220;2023-11-21T01:04:42;7.40;99.90
23411;DHT22;11878;51.774;7.220;2023-11-21T01:07:43;7.40;99.90
23411;DHT22;11878;51.774;7.220;2023-11-21T01:10:45;7.30;99.90
23411;DHT22;11878;51.774;7.220;2023-11-21T01:13:47;7.30;99.90
23411;DHT22;11878;51.774;7.220;2023-11-21T01:16:49;7.20;99.90
23411;DHT22;11878;51.774;7.220;2023-11-21T01:19:51;7.10;99.90
23411;DHT22;11878;51.774;7.220;2023-11-21T01:22:53;7.00;99.90
23411;DHT22;11878;51.774;7.220;2023-11-21T01:25:56;7.00;99.90
23411;DHT22;11878;51.774;7.220;2023-11-21T01:28:58;6.90;99.90
23411;DHT22;11878;51.774;7.220;2023-11-21T01:32:02;6.70;99.90
23411;DHT22;11878;51.774;7.220;2023-11-21T01:35:04;6.70;99.90
23411;DHT22;11878;51.774;7.220;2023-11-21T01:38:07;6.60;99.90
23411;DHT22;11878;51.774;7.220;2023-11-21T01:41:09;6.60;99.90
23411;DHT22;11878;51.774;7.220;2023-11-21T01:44:12;6.60;99.90
23411;DHT22;11878;51.774;7.220;2023-11-21T01:47:15;6.40;99.90
23411;DHT22;11878;51.774;7.220;2023-11-21T01:50:18;6.40;99.90
23411;DHT22;11878;51.774;7.220;2023-11-21T01:53:20;6.50;99.90
23411;DHT22;11878;51.774;7.220;2023-11-21T01:56:23;6.50;99.90
23411;DHT22;11878;51.774;7.220;2023-11-21T01:59:26;6.50;99.90
23411;DHT22;11878;51.774;7.220;2023-11-21T02:02:28;6.40;99.90
23411;DHT22;11878;51.774;7.220;2023-11-21T02:05:30;6.40;99.90
23411;DHT22;11878;51.774;7.220;2023-11-21T02:08:33;6.40;99.90
23411;DHT22;11878;51.774;7.220;2023-11-21T02:11:35;6.50;99.90
23411;DHT22;11878;51.774;7.220;2023-11-21T02:14:36;6.40;99.90
23411;DHT22;11878;51.774;7.220;2023-11-21T02:17:38;6.50;99.90
23411;DHT22;11878;51.774;7.220;2023-11-21T02:20:41;6.60;99.90
23411;DHT22;11878;51.774;7.220;2023-11-21T02:23:44;6.60;99.90
23411;DHT22;11878;51.774;7.220;2023-11-21T02:26:51;6.60;99.90
23411;DHT22;11878;51.774;7.220;2023-11-21T02:29:53;6.60;99.90
23411;DHT22;11878;51.774;7.220;2023-11-21T02:32:55;6.60;99.90
23411;DHT22;11878;51.774;7.220;2023-11-21T02:36:01;6.60;99.90
23411;DHT22;11878;51.774;7.220;2023-11-21T02:39:03;6.70;99.90
23411;DHT22;11878;51.774;7.220;2023-11-21T02:42:04;6.80;99.90
23411;DHT22;11878;51.774;7.220;2023-11-21T02:45:07;6.80;99.90
23411;DHT22;11878;51.774;7.220;2023-11-21T02:48:09;6.80;99.90
23411;DHT22;11878;51.774;7.220;2023-11-21T02:51:11;6.70;99.90
23411;DHT22;11878;51.774;7.220;2023-11-21T02:54:14;6.70;99.90
23411;DHT22;11878;51.774;7.220;2023-11-21T02:57:18;6.70;99.90
23411;DHT22;11878;51.774;7.220;2023-11-21T03:00:20;6.60;99.90
23411;DHT22;11878;51.774;7.220;2023-11-21T03:03:25;6.70;99.90
23411;DHT22;11878;51.774;7.220;2023-11-21T03:06:27;6.70;99.90
23411;DHT22;11878;51.774;7.220;2023-11-21T03:09:29;6.70;99.90
23411;DHT22;11878;51.774;7.220;2023-11-21T03:12:31;6.80;99.90
23411;DHT22;11878;51.774;7.220;2023-11-21T03:15:33;6.80;99.90
23411;DHT22;11878;51.774;7.220;2023-11-21T03:18:37;6.80;99.90
23411;DHT22;11878;51.774;7.220;2023-11-21T03:21:39;6.80;99.90
23411;DHT22;11878;51.774;7.220;2023-11-21T03:24:41;6.90;99.90
23411;DHT22;11878;51.774;7.220;2023-11-21T03:27:43;6.90;99.90
23411;DHT22;11878;51.774;7.220;2023-11-21T03:30:45;6.80;99.90
23411;DHT22;11878;51.774;7.220;2023-11-21T03:33:47;6.80;99.90
23411;DHT22;11878;51.774;7.220;2023-11-21T03:36:49;6.90;99.90
23411;DHT22;11878;51.774;7.220;2023-11-21T03:39:51;7.00;99.90
23411;DHT22;11878;51.774;7.220;2023-11-21T03:42:53;7.00;99.90
23411;DHT22;11878;51.774;7.220;2023-11-21T03:45:55;7.00;99.90
23411;DHT22;11878;51.774;7.220;2023-11-21T03:48:56;7.00;99.90
23411;DHT22;11878;51.774;7.220;2023-11-21T03:51:59;7.00;99.90
23411;DHT22;11878;51.774;7.220;2023-11-21T04:08:32;8.00;99.90
23411;DHT22;11878;51.774;7.220;2023-11-21T04:11:35;7.00;99.90
23411;DHT22;11878;51.774;7.220;2023-11-21T04:14:37;7.00;99.90
23411;DHT22;11878;51.774;7.220;2023-11-21T04:17:39;6.90;99.90
23411;DHT22;11878;51.774;7.220;2023-11-21T04:20:41;6.90;99.90
23411;DHT22;11878;51.774;7.220;2023-11-21T04:23:42;6.90;99.90
23411;DHT22;11878;51.774;7.220;2023-11-21T04:30:14;6.90;99.90
23411;DHT22;11878;51.774;7.220;2023-11-21T04:33:16;6.80;99.90
23411;DHT22;11878;51.774;7.220;2023-11-21T04:36:19;6.70;99.90
23411;DHT22;11878;51.774;7.220;2023-11-21T04:39:21;6.80;99.90
23411;DHT22;11878;51.774;7.220;2023-11-21T04:42:23;6.70;99.90
23411;DHT22;11878;51.774;7.220;2023-11-21T04:45:24;6.60;99.90
23411;DHT22;11878;51.774;7.220;2023-11-21T04:52:04;6.80;99.90
23411;DHT22;11878;51.774;7.220;2023-11-21T04:55:07;6.90;99.90
23411;DHT22;11878;51.774;7.220;2023-11-21T04:58:11;6.80;99.90
23411;DHT22;11878;51.774;7.220;2023-11-21T05:05:10;6.90;99.90
23411;DHT22;11878;51.774;7.220;2023-11-21T05:11:42;6.90;99.90
23411;DHT22;11878;51.774;7.220;2023-11-21T05:14:44;7.00;99.90
23411;DHT22;11878;51.774;7.220;2023-11-21T05:17:46;7.10;99.90
23411;DHT22;11878;51.774;7.220;2023-11-21T05:20:51;7.00;99.90
23411;DHT22;11878;51.774;7.220;2023-11-21T05:27:30;7.20;99.90
23411;DHT22;11878;51.774;7.220;2023-11-21T05:30:32;7.20;99.90
23411;DHT22;11878;51.774;7.220;2023-11-21T05:33:34;7.30;99.90
23411;DHT22;11878;51.774;7.220;2023-11-21T05:36:36;7.30;99.90
23411;DHT22;11878;51.774;7.220;2023-11-21T05:39:37;7.20;99.90
23411;DHT22;11878;51.774;7.220;2023-11-21T05:42:40;7.30;99.90
23411;DHT22;11878;51.774;7.220;2023-11-21T05:49:19;9.60;99.90
23411;DHT22;11878;51.774;7.220;2023-11-21T06:03:09;7.60;99.90
23411;DHT22;11878;51.774;7.220;2023-11-21T06:06:11;7.60;99.90
23411;DHT22;11878;51.774;7.220;2023-11-21T06:16:21;7.70;99.90
23411;DHT22;11878;51.774;7.220;2023-11-21T06:19:23;7.60;99.90
23411;DHT22;11878;51.774;7.220;2023-11-21T06:22:25;7.70;99.90
23411;DHT22;11878;51.774;7.220;2023-11-21T06:25:27;7.60;99.90
23411;DHT22;11878;51.774;7.220;2023-11-21T06:28:29;7.60;99.90
23411;DHT22;11878;51.774;7.220;2023-11-21T06:31:30;7.60;99.90
23411;DHT22;11878;51.774;7.220;2023-11-21T06:34:34;7.60;99.90
23411;DHT22;11878;51.774;7.220;2023-11-21T06:41:06;7.70;99.90
23411;DHT22;11878;51.774;7.220;2023-11-21T06:47:50;7.70;99.90
23411;DHT22;11878;51.774;7.220;2023-11-21T06:50:52;7.70;99.90
23411;DHT22;11878;51.774;7.220;2023-11-21T06:57:32;7.70;99.90
23411;DHT22;11878;51.774;7.220;2023-11-21T07:00:34;7.70;99.90
23411;DHT22;11878;51.774;7.220;2023-11-21T07:11:17;7.60;99.90
23411;DHT22;11878;51.774;7.220;2023-11-21T07:17:42;7.60;99.90
23411;DHT22;11878;51.774;7.220;2023-11-21T07:20:45;7.70;99.90
23411;DHT22;11878;51.774;7.220;2023-11-21T07:23:48;7.70;99.90
23411;DHT22;11878;51.774;7.220;2023-11-21T07:26:50;7.70;99.90
23411;DHT22;11878;51.774;7.220;2023-11-21T07:29:51;7.70;99.90
23411;DHT22;11878;51.774;7.220;2023-11-21T07:40:05;7.70;99.90
23411;DHT22;11878;51.774;7.220;2023-11-21T07:50:05;7.70;99.90
23411;DHT22;11878;51.774;7.220;2023-11-21T07:53:07;7.70;99.90
23411;DHT22;11878;51.774;7.220;2023-11-21T08:03:10;7.80;99.90
23411;DHT22;11878;51.774;7.220;2023-11-21T08:06:13;7.90;99.90
23411;DHT22;11878;51.774;7.220;2023-11-21T08:09:15;7.80;99.90
23411;DHT22;11878;51.774;7.220;2023-11-21T08:12:18;7.90;99.90
23411;DHT22;11878;51.774;7.220;2023-11-21T08:15:21;7.90;99.90
23411;DHT22;11878;51.774;7.220;2023-11-21T08:18:23;8.00;99.90
23411;DHT22;11878;51.774;7.220;2023-11-21T08:38:53;8.00;99.90
23411;DHT22;11878;51.774;7.220;2023-11-21T09:03:27;8.10;99.90
23411;DHT22;11878;51.774;7.220;2023-11-21T09:13:31;8.10;99.90
23411;DHT22;11878;51.774;7.220;2023-11-21T09:16:33;8.20;99.90
23411;DHT22;11878;51.774;7.220;2023-11-21T09:23:06;8.40;99.90
23411;DHT22;11878;51.774;7.220;2023-11-21T09:37:02;8.50;99.90
23411;DHT22;11878;51.774;7.220;2023-11-21T09:40:10;8.50;99.90
23411;DHT22;11878;51.774;7.220;2023-11-21T09:43:16;8.60;99.90
23411;DHT22;11878;51.774;7.220;2023-11-21T09:46:22;8.70;99.90
23411;DHT22;11878;51.774;7.220;2023-11-21T09:49:26;8.80;99.90
23411;DHT22;11878;51.774;7.220;2023-11-21T09:52:31;8.80;99.90
23411;DHT22;11878;51.774;7.220;2023-11-21T09:55:35;8.80;99.90
23411;DHT22;11878;51.774;7.220;2023-11-21T09:58:40;8.90;99.90
23411;DHT22;11878;51.774;7.220;2023-11-21T10:01:42;8.90;99.90
23411;DHT22;11878;51.774;7.220;2023-11-21T10:04:45;8.90;99.90
23411;DHT22;11878;51.774;7.220;2023-11-21T10:07:50;9.00;99.90
23411;DHT22;11878;51.774;7.220;2023-11-21T10:21:11;9.10;99.90
23411;DHT22;11878;51.774;7.220;2023-11-21T10:24:13;9.00;99.90
23411;DHT22;11878;51.774;7.220;2023-11-21T10:51:21;9.20;99.90
23411;DHT22;11878;51.774;7.220;2023-11-21T10:54:24;9.20;99.90
23411;DHT22;11878;51.774;7.220;2023-11-21T11:15:36;9.30;99.90
23411;DHT22;11878;51.774;7.220;2023-11-21T11:18:39;9.40;99.90
23411;DHT22;11878;51.774;7.220;2023-11-21T11:29:18;9.50;99.90
23411;DHT22;11878;51.774;7.220;2023-11-21T11:32:40;9.60;99.90
23411;DHT22;11878;51.774;7.220;2023-11-21T11:42:34;9.60;99.90
23411;DHT22;11878;51.774;7.220;2023-11-21T11:45:37;9.60;99.90
23411;DHT22;11878;51.774;7.220;2023-11-21T11:48:45;9.40;99.90
23411;DHT22;11878;51.774;7.220;2023-11-21T11:51:47;9.50;99.90
23411;DHT22;11878;51.774;7.220;2023-11-21T11:54:49;9.60;99.90
23411;DHT22;11878;51.774;7.220;2023-11-21T11:57:54;9.50;99.90
23411;DHT22;11878;51.774;7.220;2023-11-21T12:01:06;9.60;99.90
23411;DHT22;11878;51.774;7.220;2023-11-21T12:07:21;9.70;99.90
23411;DHT22;11878;51.774;7.220;2023-11-21T12:17:18;9.70;99.90
23411;DHT22;11878;51.774;7.220;2023-11-21T12:20:22;9.70;99.90
23411;DHT22;11878;51.774;7.220;2023-11-21T12:23:25;9.80;99.90
23411;DHT22;11878;51.774;7.220;2023-11-21T12:51:52;9.50;99.90
23411;DHT22;11878;51.774;7.220;2023-11-21T13:26:34;9.40;99.90
23411;DHT22;11878;51.774;7.220;2023-11-21T13:40:03;9.40;99.90
23411;DHT22;11878;51.774;7.220;2023-11-21T13:43:13;9.30;99.90
23411;DHT22;11878;51.774;7.220;2023-11-21T13:53:30;9.40;99.90
23411;DHT22;11878;51.774;7.220;2023-11-21T13:56:32;9.40;99.90
23411;DHT22;11878;51.774;7.220;2023-11-21T13:59:34;9.40;99.90
23411;DHT22;11878;51.774;7.220;2023-11-21T14:02:36;9.40;99.90
23411;DHT22;11878;51.774;7.220;2023-11-21T14:16:36;9.20;99.90
23411;DHT22;11878;51.774;7.220;2023-11-21T14:19:38;9.10;99.90
23411;DHT22;11878;51.774;7.220;2023-11-21T14:26:22;9.10;99.90
23411;DHT22;11878;51.774;7.220;2023-11-21T14:39:58;8.70;99.90
23411;DHT22;11878;51.774;7.220;2023-11-21T15:22:58;8.20;99.90
23411;DHT22;11878;51.774;7.220;2023-11-21T15:50:30;7.90;99.90
23411;DHT22;11878;51.774;7.220;2023-11-21T16:22:37;7.60;99.90
23411;DHT22;11878;51.774;7.220;2023-11-21T16:29:23;7.70;99.90
23411;DHT22;11878;51.774;7.220;2023-11-21T16:32:25;7.70;99.90
23411;DHT22;11878;51.774;7.220;2023-11-21T16:35:27;7.60;99.90
23411;DHT22;11878;51.774;7.220;2023-11-21T16:38:29;7.50;99.90
23411;DHT22;11878;51.774;7.220;2023-11-21T16:41:31;7.50;99.90
23411;DHT22;11878;51.774;7.220;2023-11-21T16:48:10;7.40;99.90
23411;DHT22;11878;51.774;7.220;2023-11-21T17:26:29;7.30;99.90
23411;DHT22;11878;51.774;7.220;2023-11-21T17:29:32;7.40;99.90
23411;DHT22;11878;51.774;7.220;2023-11-21T17:32:34;7.30;99.90
23411;DHT22;11878;51.774;7.220;2023-11-21T17:39:14;7.30;99.90
23411;DHT22;11878;51.774;7.220;2023-11-21T17:42:16;7.30;99.90
23411;DHT22;11878;51.774;7.220;2023-11-21T17:48:55;7.30;99.90
23411;DHT22;11878;51.774;7.220;2023-11-21T17:51:57;7.40;99.90
23411;DHT22;11878;51.774;7.220;2023-11-21T17:54:59;7.30;99.90
23411;DHT22;11878;51.774;7.220;2023-11-21T17:58:01;7.30;99.90
23411;DHT22;11878;51.774;7.220;2023-11-21T18:01:02;7.30;99.90
23411;DHT22;11878;51.774;7.220;2023-11-21T18:04:04;7.30;99.90
23411;DHT22;11878;51.774;7.220;2023-11-21T18:18:01;7.30;99.90
23411;DHT22;11878;51.774;7.220;2023-11-21T18:21:03;7.20;99.90
23411;DHT22;11878;51.774;7.220;2023-11-21T18:24:06;7.40;99.90
23411;DHT22;11878;51.774;7.220;2023-11-21T18:27:08;7.20;99.90
23411;DHT22;11878;51.774;7.220;2023-11-21T18:44:22;7.30;99.90
23411;DHT22;11878;51.774;7.220;2023-11-21T18:47:24;7.20;99.90
23411;DHT22;11878;51.774;7.220;2023-11-21T18:50:26;7.30;99.90
23411;DHT22;11878;51.774;7.220;2023-11-21T18:53:29;7.30;99.90
23411;DHT22;11878;51.774;7.220;2023-11-21T18:56:33;7.30;99.90
23411;DHT22;11878;51.774;7.220;2023-11-21T18:59:35;7.30;99.90
23411;DHT22;11878;51.774;7.220;2023-11-21T19:02:37;7.30;99.90
23411;DHT22;11878;51.774;7.220;2023-11-21T19:12:43;7.30;99.90
23411;DHT22;11878;51.774;7.220;2023-11-21T19:15:45;7.30;99.90
23411;DHT22;11878;51.774;7.220;2023-11-21T19:18:47;7.30;99.90
23411;DHT22;11878;51.774;7.220;2023-11-21T19:21:51;7.40;99.90
23411;DHT22;11878;51.774;7.220;2023-11-21T19:24:54;7.30;99.90
23411;DHT22;11878;51.774;7.220;2023-11-21T19:27:55;7.30;99.90
23411;DHT22;11878;51.774;7.220;2023-11-21T19:30:58;7.20;99.90
23411;DHT22;11878;51.774;7.220;2023-11-21T19:41:20;7.20;99.90
23411;DHT22;11878;51.774;7.220;2023-11-21T19:44:22;7.10;99.90
23411;DHT22;11878;51.774;7.220;2023-11-21T19:47:23;7.10;99.90
23411;DHT22;11878;51.774;7.220;2023-11-21T19:50:25;7.00;99.90
23411;DHT22;11878;51.774;7.220;2023-11-21T19:53:27;7.00;99.90
23411;DHT22;11878;51.774;7.220;2023-11-21T19:56:29;7.00;99.90
23411;DHT22;11878;51.774;7.220;2023-11-21T19:59:33;4.90;99.90
23411;DHT22;11878;51.774;7.220;2023-11-21T20:02:35;6.90;99.90
23411;DHT22;11878;51.774;7.220;2023-11-21T20:05:37;6.80;99.90
23411;DHT22;11878;51.774;7.220;2023-11-21T20:08:40;6.80;99.90
23411;DHT22;11878;51.774;7.220;2023-11-21T20:11:42;6.80;99.90
23411;DHT22;11878;51.774;7.220;2023-11-21T20:14:47;6.80;99.90
23411;DHT22;11878;51.774;7.220;2023-11-21T20:17:49;6.80;99.90
23411;DHT22;11878;51.774;7.220;2023-11-21T20:20:51;6.80;99.90
23411;DHT22;11878;51.774;7.220;2023-11-21T20:23:53;6.80;99.90
23411;DHT22;11878;51.774;7.220;2023-11-21T20:26:55;6.80;99.90
23411;DHT22;11878;51.774;7.220;2023-11-21T20:43:54;6.60;99.90
23411;DHT22;11878;51.774;7.220;2023-11-21T20:46:58;6.30;99.90
23411;DHT22;11878;51.774;7.220;2023-11-21T20:50:11;6.30;99.90
23411;DHT22;11878;51.774;7.220;2023-11-21T20:53:13;6.40;99.90
23411;DHT22;11878;51.774;7.220;2023-11-21T20:56:15;6.50;99.90
23411;DHT22;11878;51.774;7.220;2023-11-21T20:59:17;6.50;99.90
23411;DHT22;11878;51.774;7.220;2023-11-21T21:02:19;6.50;99.90
23411;DHT22;11878;51.774;7.220;2023-11-21T21:05:21;6.50;99.90
23411;DHT22;11878;51.774;7.220;2023-11-21T21:08:24;6.60;99.90
23411;DHT22;11878;51.774;7.220;2023-11-21T21:11:27;6.50;99.90
23411;DHT22;11878;51.774;7.220;2023-11-21T21:14:33;6.50;99.90
23411;DHT22;11878;51.774;7.220;2023-11-21T21:17:35;6.40;99.90
23411;DHT22;11878;51.774;7.220;2023-11-21T21:20:37;6.30;99.90
23411;DHT22;11878;51.774;7.220;2023-11-21T21:23:38;6.20;99.90
23411;DHT22;11878;51.774;7.220;2023-11-21T21:26:40;6.20;99.90
23411;DHT22;11878;51.774;7.220;2023-11-21T21:29:42;6.20;99.90
23411;DHT22;11878;51.774;7.220;2023-11-21T21:32:44;6.10;99.90
23411;DHT22;11878;51.774;7.220;2023-11-21T21:35:45;6.10;99.90
23411;DHT22;11878;51.774;7.220;2023-11-21T21:38:48;6.20;99.90
23411;DHT22;11878;51.774;7.220;2023-11-21T21:41:52;6.30;99.90
23411;DHT22;11878;51.774;7.220;2023-11-21T21:44:54;6.40;99.90
23411;DHT22;11878;51.774;7.220;2023-11-21T21:47:56;6.40;99.90
23411;DHT22;11878;51.774;7.220;2023-11-21T21:50:57;6.50;99.90
23411;DHT22;11878;51.774;7.220;2023-11-21T21:53:59;6.50;99.90
23411;DHT22;11878;51.774;7.220;2023-11-21T21:57:01;6.50;99.90
23411;DHT22;11878;51.774;7.220;2023-11-21T22:00:03;6.50;99.90
23411;DHT22;11878;51.774;7.220;2023-11-21T22:03:18;6.50;99.90
23411;DHT22;11878;51.774;7.220;2023-11-21T22:06:20;6.50;99.90
23411;DHT22;11878;51.774;7.220;2023-11-21T22:09:21;6.50;99.90
23411;DHT22;11878;51.774;7.220;2023-11-21T22:12:23;6.60;99.90
23411;DHT22;11878;51.774;7.220;2023-11-21T22:19:02;6.50;99.90
23411;DHT22;11878;51.774;7.220;2023-11-21T22:22:04;6.60;99.90
23411;DHT22;11878;51.774;7.220;2023-11-21T22:25:07;6.60;99.90
23411;DHT22;11878;51.774;7.220;2023-11-21T22:31:41;8.30;99.90
23411;DHT22;11878;51.774;7.220;2023-11-21T22:34:43;6.50;99.90
23411;DHT22;11878;51.774;7.220;2023-11-21T22:37:45;6.50;99.90
23411;DHT22;11878;51.774;7.220;2023-11-21T22:40:46;6.50;99.90
23411;DHT22;11878;51.774;7.220;2023-11-21T22:43:49;6.50;99.90
23411;DHT22;11878;51.774;7.220;2023-11-21T22:50:28;6.40;99.90
23411;DHT22;11878;51.774;7.220;2023-11-21T22:57:01;6.50;99.90
23411;DHT22;11878;51.774;7.220;2023-11-21T23:00:04;6.50;99.90
23411;DHT22;11878;51.774;7.220;2023-11-21T23:03:22;6.40;99.90
23411;DHT22;11878;51.774;7.220;2023-11-21T23:06:25;6.30;99.90
23411;DHT22;11878;51.774;7.220;2023-11-21T23:09:28;6.40;99.90
23411;DHT22;11878;51.774;7.220;2023-11-21T23:12:30;6.40;99.90
23411;DHT22;11878;51.774;7.220;2023-11-21T23:15:31;6.30;99.90
23411;DHT22;11878;51.774;7.220;2023-11-21T23:18:33;6.20;99.90
23411;DHT22;11878;51.774;7.220;2023-11-21T23:21:35;6.20;99.90
23411;DHT22;11878;51.774;7.220;2023-11-21T23:24:37;6.20;99.90
23411;DHT22;11878;51.774;7.220;2023-11-21T23:27:39;6.20;99.90
23411;DHT22;11878;51.774;7.220;2023-11-21T23:30:43;6.30;99.90
23411;DHT22;11878;51.774;7.220;2023-11-21T23:33:45;6.30;99.90
23411;DHT22;11878;51.774;7.220;2023-11-21T23:36:47;6.20;99.90
23411;DHT22;11878;51.774;7.220;2023-11-21T23:39:49;6.20;99.90
23411;DHT22;11878;51.774;7.220;2023-11-21T23:42:51;6.30;99.90
23411;DHT22;11878;51.774;7.220;2023-11-21T23:45:53;6.30;99.90
23411;DHT22;11878;51.774;7.220;2023-11-21T23:48:57;6.30;99.90
23411;DHT22;11878;51.774;7.220;2023-11-21T23:51:59;6.20;99.90
23411;DHT22;11878;51.774;7.220;2023-11-21T23:55:01;6.20;99.90
23411;DHT22;11878;51.774;7.220;2023-11-21T23:58:04;6.20;99.90
